Etusivu
METAR-TAF:

METAR-TAF

Lentoasemat :

Bodøn lentoasema

Bodø, Norja

Leveyspiiri: 67-16N, Pituuspiiri: 014-22E, korkeus merenpinnasta: 1 m

Tämänhetkinen sää

Tämä raportti tehtiin 39 minuuttia sitten, kello 01.50 UTC
Tuuli 20 kn idästä
Lämpötila 11°C
Kosteus 71%
Ilmanpaine 1014 hPa
Näkyvyys 10 km tai enemmän
Muutamia pilviä 4500 ft:n korkeudessa

METAR: ENBO 280150Z 09020KT 9999 FEW045 11/06 Q1014

Aika: 04:29 (02:29 UTC)

Sääennuste

Ennuste voimassa 27. päivästä klo 18 UTC - 28. päivään klo 18 UTC
Tuuli 18 kn idästä
Näkyvyys 10 km tai enemmän
Muutamia pilviä 4000 ft:n korkeudessa

TAF: ENBO 2718/2818 09018KT 9999 FEW040

Säähavainnot ja -ennusteet yli 4000 lentoasemalta (METAR- ja TAF-raportit).

Käytössä olevat sääasemat on merkitty karttaan keltaisilla ja punaisilla pisteillä.

Aseta hiiri pisteen päälle nähdäksesi sääaseman nimen.

Klikkaa sitten nähdäksesi säähavainnot ja -ennusteet.

Kartan vaihtaminen: klikkaa mustalla rastilla varustettuja vihreitä pisteitä, niin voit zoomata sisään; viivalla varustettua vihreää pistettä, niin voit zoomata ulos tai vihreitä nuolia, niin pääset viereisille kartoille.


METAR-TAF: